Time;durP1;ratioP1;P1;durP2;ratioP2;P2;SDS_P1;SDS_P2;PMS_P1;PMS_P2;Temp;Humidity;BMP_temperature;BMP_pressure;BME280_temperature;BME280_humidity;BME280_pressure;Samples;Min_cycle;Max_cycle;Signal;HPM_P1;HPM_P2
2023/09/23 00:01:36;;;;;;;2.47;0.93;;;10.60;99.90;;;;;;5116180;27;20036;-42
2023/09/23 00:04:03;;;;;;;1.02;0.75;;;10.60;99.90;;;;;;5123236;27;20056;-46
2023/09/23 00:06:28;;;;;;;3.67;1.30;;;10.60;99.90;;;;;;5115730;27;20160;-45
2023/09/23 00:08:55;;;;;;;1.63;0.88;;;10.60;99.90;;;;;;5113914;27;20056;-44
2023/09/23 00:11:21;;;;;;;1.65;0.77;;;10.60;99.90;;;;;;5126868;27;20520;-45
2023/09/23 00:13:47;;;;;;;1.48;0.80;;;10.60;99.90;;;;;;5099791;28;20035;-42
2023/09/23 00:16:15;;;;;;;2.40;1.10;;;10.50;99.90;;;;;;5116633;27;20554;-42
2023/09/23 00:18:41;;;;;;;3.72;1.00;;;10.50;99.90;;;;;;5131372;27;20035;-43
2023/09/23 00:21:07;;;;;;;1.63;0.90;;;10.40;99.90;;;;;;5131123;27;20025;-43
2023/09/23 00:23:34;;;;;;;1.80;0.82;;;10.40;99.90;;;;;;5130944;27;20027;-53
2023/09/23 00:26:03;;;;;;;2.10;1.00;;;10.40;99.90;;;;;;5131520;27;20118;-53
2023/09/23 00:28:31;;;;;;;2.03;0.90;;;10.30;99.90;;;;;;5131384;27;20040;-50
2023/09/23 00:31:11;;;;;;;1.30;1.00;;;10.30;99.90;;;;;;5131306;27;20122;-43
2023/09/23 00:33:37;;;;;;;2.08;0.90;;;10.20;99.90;;;;;;5130987;27;20279;-42
2023/09/23 00:36:05;;;;;;;3.00;0.80;;;10.20;99.90;;;;;;5131429;27;20437;-42
2023/09/23 00:38:32;;;;;;;1.85;0.85;;;10.20;99.90;;;;;;5131530;27;20039;-43
2023/09/23 00:40:58;;;;;;;1.48;0.98;;;10.20;99.90;;;;;;5130757;27;20055;-51
2023/09/23 00:43:23;;;;;;;1.60;0.80;;;10.10;99.90;;;;;;5130114;27;20076;-51
2023/09/23 00:45:54;;;;;;;6.22;1.20;;;10.10;99.90;;;;;;5129524;27;20037;-54
2023/09/23 00:48:21;;;;;;;1.27;0.80;;;10.10;99.90;;;;;;5129324;27;20050;-56
2023/09/23 00:50:48;;;;;;;3.25;0.88;;;10.10;99.90;;;;;;5119613;27;20023;-53
2023/09/23 00:53:14;;;;;;;5.22;0.80;;;10.10;99.90;;;;;;5120736;27;20548;-54
2023/09/23 00:55:42;;;;;;;2.38;0.75;;;10.10;99.90;;;;;;5110567;28;20058;-48
2023/09/23 00:58:14;;;;;;;2.00;0.73;;;10.10;99.90;;;;;;5110375;28;20034;-52
2023/09/23 01:00:44;;;;;;;1.42;0.73;;;10.20;99.90;;;;;;5110357;28;20027;-52
2023/09/23 01:03:11;;;;;;;2.78;0.73;;;10.10;99.90;;;;;;5122408;27;20055;-51
2023/09/23 01:05:36;;;;;;;2.17;1.02;;;10.20;99.90;;;;;;5110494;28;20520;-55
2023/09/23 01:08:04;;;;;;;2.08;0.82;;;10.10;99.90;;;;;;5109813;28;20157;-52
2023/09/23 01:10:30;;;;;;;1.50;1.00;;;10.10;99.90;;;;;;5110146;28;20396;-45
2023/09/23 01:12:56;;;;;;;1.58;0.70;;;10.10;99.90;;;;;;5123809;27;20016;-49
2023/09/23 01:15:25;;;;;;;1.95;0.90;;;10.10;99.90;;;;;;5115166;27;20024;-52
2023/09/23 01:17:53;;;;;;;3.22;0.75;;;10.10;99.90;;;;;;5130800;27;20027;-54
2023/09/23 01:20:20;;;;;;;2.00;0.85;;;10.00;99.90;;;;;;5131055;27;20073;-49
2023/09/23 01:22:47;;;;;;;1.20;0.90;;;10.00;99.90;;;;;;5131079;27;20115;-53
2023/09/23 01:25:13;;;;;;;3.25;1.30;;;10.00;99.90;;;;;;5130799;27;20476;-51
2023/09/23 01:27:39;;;;;;;1.98;1.02;;;10.00;99.90;;;;;;5130548;27;20019;-53
2023/09/23 01:30:05;;;;;;;2.15;1.10;;;9.90;99.90;;;;;;5130979;28;20091;-55
2023/09/23 01:32:48;;;;;;;1.15;0.75;;;9.90;99.90;;;;;;5130378;28;20084;-51
2023/09/23 01:35:17;;;;;;;2.15;0.98;;;9.90;99.90;;;;;;5132323;27;20015;-48
2023/09/23 01:37:46;;;;;;;1.10;0.80;;;9.90;99.90;;;;;;5134770;27;20042;-53
2023/09/23 01:40:18;;;;;;;1.38;0.88;;;9.80;99.90;;;;;;5116406;27;20077;-48
2023/09/23 01:42:49;;;;;;;1.52;0.85;;;9.70;99.90;;;;;;5134780;27;20031;-48
2023/09/23 01:45:15;;;;;;;1.83;1.00;;;9.70;99.90;;;;;;5134982;27;20499;-56
2023/09/23 01:47:41;;;;;;;2.85;0.88;;;9.60;99.90;;;;;;5134412;27;20430;-47
2023/09/23 01:50:10;;;;;;;1.33;0.90;;;9.50;99.90;;;;;;5134881;27;20030;-51
2023/09/23 01:52:37;;;;;;;1.30;0.80;;;9.50;99.90;;;;;;5134413;27;20023;-51
2023/09/23 01:55:04;;;;;;;3.80;0.90;;;9.40;99.90;;;;;;5134702;27;20107;-45
2023/09/23 01:57:33;;;;;;;1.17;0.77;;;9.40;99.90;;;;;;5134015;27;20202;-49
2023/09/23 02:00:00;;;;;;;2.75;0.88;;;9.40;99.90;;;;;;5133744;27;20024;-45
2023/09/23 02:02:27;;;;;;;1.50;0.98;;;9.30;99.90;;;;;;5134242;27;20027;-49
2023/09/23 02:04:53;;;;;;;1.40;0.88;;;9.30;99.90;;;;;;5134103;27;20506;-48
2023/09/23 02:07:18;;;;;;;2.45;1.00;;;9.30;99.90;;;;;;5133932;27;20149;-48
2023/09/23 02:09:45;;;;;;;1.50;0.80;;;9.20;99.90;;;;;;5133847;27;20039;-49
2023/09/23 02:12:12;;;;;;;3.60;1.05;;;9.20;99.90;;;;;;5133896;27;20033;-46
2023/09/23 02:14:39;;;;;;;1.23;0.65;;;9.20;99.90;;;;;;5133801;27;20104;-47
2023/09/23 02:17:05;;;;;;;2.08;1.17;;;9.10;99.90;;;;;;5119117;27;20046;-49
2023/09/23 02:19:30;;;;;;;2.60;0.80;;;9.10;99.90;;;;;;5134060;27;20042;-57
2023/09/23 02:21:56;;;;;;;1.60;0.93;;;9.10;99.90;;;;;;5115535;27;20089;-47
2023/09/23 02:24:22;;;;;;;3.80;0.88;;;9.10;99.90;;;;;;5134239;27;20361;-48
2023/09/23 02:26:48;;;;;;;1.40;0.60;;;9.10;99.90;;;;;;5134001;27;20031;-48
2023/09/23 02:29:15;;;;;;;3.47;1.00;;;9.20;99.90;;;;;;5133085;27;20015;-49
2023/09/23 02:31:49;;;;;;;2.38;1.10;;;9.20;99.90;;;;;;5133980;27;20106;-49
2023/09/23 02:34:18;;;;;;;4.22;1.00;;;9.20;99.90;;;;;;5132564;27;20480;-51
2023/09/23 02:36:50;;;;;;;4.70;0.90;;;9.20;99.90;;;;;;5133869;27;20027;-47
2023/09/23 02:39:19;;;;;;;1.67;0.90;;;9.20;99.90;;;;;;5132579;27;20095;-51
2023/09/23 02:41:45;;;;;;;2.63;0.93;;;9.20;99.90;;;;;;5132387;28;20019;-47
2023/09/23 02:44:20;;;;;;;2.38;1.00;;;9.20;99.90;;;;;;5131362;28;20041;-54
2023/09/23 02:46:46;;;;;;;4.40;1.10;;;9.20;99.90;;;;;;5132178;27;20076;-50
2023/09/23 02:49:15;;;;;;;2.63;1.00;;;9.30;99.90;;;;;;5131513;27;20079;-54
2023/09/23 02:51:42;;;;;;;2.47;1.23;;;9.20;99.90;;;;;;5123320;28;20085;-50
2023/09/23 02:54:13;;;;;;;3.58;0.98;;;9.30;99.90;;;;;;5132011;28;20019;-47
2023/09/23 02:56:40;;;;;;;1.33;0.73;;;9.30;99.90;;;;;;5132127;28;20071;-54
2023/09/23 02:59:13;;;;;;;1.83;0.70;;;9.30;99.90;;;;;;5132291;27;20505;-45
2023/09/23 03:01:45;;;;;;;3.00;1.13;;;9.20;99.90;;;;;;5130441;28;20038;-50
2023/09/23 03:04:16;;;;;;;1.42;0.60;;;9.20;99.90;;;;;;5131933;28;20067;-51
2023/09/23 03:06:50;;;;;;;3.60;0.90;;;9.20;99.90;;;;;;5131852;28;20019;-50
2023/09/23 03:09:19;;;;;;;0.93;0.65;;;9.10;99.90;;;;;;5124445;27;20028;-56
2023/09/23 03:11:53;;;;;;;2.45;0.80;;;9.20;99.90;;;;;;5125736;27;20038;-48
2023/09/23 03:14:25;;;;;;;1.33;0.80;;;9.10;99.90;;;;;;5132115;28;20027;-48
2023/09/23 03:16:53;;;;;;;1.33;0.73;;;9.10;99.90;;;;;;5131810;27;20035;-45
2023/09/23 03:19:25;;;;;;;3.22;0.93;;;9.00;99.90;;;;;;5131736;28;20023;-54
2023/09/23 03:21:54;;;;;;;3.53;1.05;;;9.10;99.90;;;;;;5131877;28;20034;-53
2023/09/23 03:24:20;;;;;;;1.85;0.80;;;9.00;99.90;;;;;;5131454;28;20098;-50
2023/09/23 03:26:46;;;;;;;1.38;0.80;;;9.00;99.90;;;;;;5120688;28;20169;-47
2023/09/23 03:29:13;;;;;;;3.00;1.25;;;9.00;99.90;;;;;;5128519;27;20051;-49
2023/09/23 03:31:39;;;;;;;3.35;1.10;;;9.10;99.90;;;;;;5130929;28;20072;-53
2023/09/23 03:34:05;;;;;;;2.45;1.00;;;9.10;99.90;;;;;;5131549;27;20061;-53
2023/09/23 03:36:31;;;;;;;3.00;0.90;;;9.10;99.90;;;;;;5131746;28;20024;-51
2023/09/23 03:39:00;;;;;;;3.54;0.82;;;9.10;99.90;;;;;;5111017;28;1103215;-43
2023/09/23 03:41:30;;;;;;;5.78;0.98;;;9.20;99.90;;;;;;5132562;27;20030;-54
2023/09/23 03:43:56;;;;;;;4.15;0.60;;;9.10;99.90;;;;;;5132526;27;20023;-54
2023/09/23 03:46:21;;;;;;;1.40;0.88;;;9.10;99.90;;;;;;5131373;27;20050;-53
2023/09/23 03:48:47;;;;;;;1.40;0.80;;;9.10;99.90;;;;;;5132495;27;20487;-45
2023/09/23 03:51:14;;;;;;;2.80;1.10;;;9.10;99.90;;;;;;5131200;27;20019;-57
2023/09/23 03:53:40;;;;;;;3.30;0.90;;;9.10;99.90;;;;;;5132540;27;20590;-52
2023/09/23 03:56:06;;;;;;;3.58;0.93;;;9.10;99.90;;;;;;5132520;27;20107;-49
2023/09/23 03:58:32;;;;;;;5.38;1.10;;;9.10;99.90;;;;;;5131267;27;20121;-52
2023/09/23 04:01:05;;;;;;;2.28;0.70;;;9.10;99.90;;;;;;5130589;27;20066;-51
2023/09/23 04:03:34;;;;;;;1.92;0.80;;;9.00;99.90;;;;;;5132043;27;20088;-51
2023/09/23 04:06:00;;;;;;;3.15;0.73;;;8.90;99.90;;;;;;5131309;27;20118;-47
2023/09/23 04:08:27;;;;;;;2.88;0.80;;;9.00;99.90;;;;;;5130716;27;20053;-47
2023/09/23 04:10:52;;;;;;;3.40;1.30;;;8.90;99.90;;;;;;5132229;27;20031;-50
2023/09/23 04:13:18;;;;;;;6.50;1.23;;;8.90;99.90;;;;;;5131025;27;20452;-49
2023/09/23 04:15:44;;;;;;;1.58;0.90;;;8.80;99.90;;;;;;5131637;27;20521;-52
2023/09/23 04:18:10;;;;;;;3.60;0.90;;;8.90;99.90;;;;;;5131972;27;20030;-49
2023/09/23 04:20:36;;;;;;;1.77;0.90;;;8.90;99.90;;;;;;5131509;27;20471;-52
2023/09/23 04:23:02;;;;;;;2.55;1.20;;;8.90;99.90;;;;;;5130030;27;20027;-56
2023/09/23 04:25:29;;;;;;;1.77;0.70;;;8.90;99.90;;;;;;5131606;27;20057;-45
2023/09/23 04:27:57;;;;;;;1.85;0.90;;;8.90;99.90;;;;;;5131453;27;20370;-50
2023/09/23 04:30:25;;;;;;;3.53;0.75;;;8.80;99.90;;;;;;5131108;27;20019;-46
2023/09/23 04:32:50;;;;;;;7.95;1.17;;;8.70;99.90;;;;;;5131743;27;20058;-46
2023/09/23 04:35:16;;;;;;;2.10;1.17;;;8.80;99.90;;;;;;5130314;27;20232;-43
2023/09/23 04:37:42;;;;;;;4.10;0.88;;;8.70;99.90;;;;;;5131254;27;20460;-41
2023/09/23 04:40:09;;;;;;;3.55;0.82;;;8.70;99.90;;;;;;5131536;27;20055;-43
2023/09/23 04:42:35;;;;;;;4.30;0.80;;;8.60;99.90;;;;;;5129578;27;20062;-45
2023/09/23 04:45:02;;;;;;;4.00;0.93;;;8.70;99.90;;;;;;5131078;27;20023;-52
2023/09/23 04:47:28;;;;;;;4.43;1.02;;;8.60;99.90;;;;;;5095942;27;20035;-52
2023/09/23 04:49:55;;;;;;;3.10;1.05;;;8.60;99.90;;;;;;5131220;27;20383;-44
2023/09/23 04:52:20;;;;;;;2.70;1.08;;;8.70;99.90;;;;;;5125160;27;20340;-49
2023/09/23 04:54:46;;;;;;;6.40;1.20;;;8.70;99.90;;;;;;5131037;27;20027;-54
2023/09/23 04:57:14;;;;;;;4.43;1.13;;;8.70;99.90;;;;;;5131193;27;20031;-54
2023/09/23 04:59:40;;;;;;;5.43;1.38;;;8.60;99.90;;;;;;5129179;27;20479;-46
2023/09/23 05:02:05;;;;;;;1.52;0.90;;;8.70;99.90;;;;;;5127793;27;20019;-54
2023/09/23 05:04:31;;;;;;;4.93;1.05;;;8.70;99.90;;;;;;5130731;27;20026;-50
2023/09/23 05:06:57;;;;;;;2.85;0.90;;;8.70;99.90;;;;;;5130980;27;20421;-53
2023/09/23 05:09:25;;;;;;;7.38;1.45;;;8.70;99.90;;;;;;5130970;27;20051;-48
2023/09/23 05:11:51;;;;;;;1.90;0.85;;;8.70;99.90;;;;;;5131283;27;20033;-45
2023/09/23 05:14:17;;;;;;;3.75;1.25;;;8.70;99.90;;;;;;5130945;27;20019;-52
2023/09/23 05:16:42;;;;;;;3.70;0.90;;;8.70;99.90;;;;;;5130899;27;20106;-49
2023/09/23 05:19:09;;;;;;;5.05;0.88;;;8.70;99.90;;;;;;5130566;27;20028;-46
2023/09/23 05:21:35;;;;;;;2.65;0.98;;;8.70;99.90;;;;;;5130780;27;20096;-51
2023/09/23 05:24:01;;;;;;;2.50;0.93;;;8.70;99.90;;;;;;5130820;27;20029;-55
2023/09/23 05:26:27;;;;;;;2.42;0.80;;;8.60;99.90;;;;;;5130633;27;20106;-58
2023/09/23 05:28:52;;;;;;;6.32;1.20;;;8.70;99.90;;;;;;5130456;28;20115;-56
2023/09/23 05:31:18;;;;;;;4.18;1.23;;;8.70;99.90;;;;;;5130867;27;20053;-53
2023/09/23 05:33:44;;;;;;;2.30;0.98;;;8.70;99.90;;;;;;5130589;28;20079;-54
2023/09/23 05:36:10;;;;;;;2.50;0.95;;;8.70;99.90;;;;;;5130786;28;20035;-54
2023/09/23 05:38:36;;;;;;;2.65;1.15;;;8.70;99.90;;;;;;5130559;27;20038;-50
2023/09/23 05:41:03;;;;;;;10.35;2.28;;;8.70;99.90;;;;;;5130580;27;20036;-52
2023/09/23 05:43:29;;;;;;;3.45;1.10;;;8.70;99.90;;;;;;5130642;27;20030;-55
2023/09/23 05:45:55;;;;;;;3.38;0.98;;;8.60;99.90;;;;;;5129828;27;20046;-51
2023/09/23 05:48:20;;;;;;;2.22;0.80;;;8.60;99.90;;;;;;5129218;27;20142;-52
2023/09/23 05:50:48;;;;;;;2.20;1.15;;;8.60;99.90;;;;;;5122237;28;20110;-49
2023/09/23 05:53:13;;;;;;;1.38;0.80;;;8.50;99.90;;;;;;5110088;28;20038;-54
2023/09/23 05:55:39;;;;;;;3.13;1.38;;;8.50;99.90;;;;;;5118260;27;20023;-52
2023/09/23 05:58:04;;;;;;;2.33;0.90;;;8.50;99.90;;;;;;5121384;28;20050;-54
2023/09/23 06:00:30;;;;;;;2.58;1.00;;;8.50;99.90;;;;;;5119244;27;20023;-54
2023/09/23 06:02:55;;;;;;;1.83;0.85;;;8.50;99.90;;;;;;5123957;28;20023;-50
2023/09/23 06:05:22;;;;;;;3.40;0.80;;;8.50;99.90;;;;;;5128716;27;20019;-47
2023/09/23 06:07:48;;;;;;;4.50;1.20;;;8.50;99.90;;;;;;5130404;27;20038;-47
2023/09/23 06:10:15;;;;;;;2.50;0.93;;;8.50;99.90;;;;;;5128758;27;20360;-48
2023/09/23 06:12:40;;;;;;;3.03;0.73;;;8.50;99.90;;;;;;5130336;28;20110;-50
2023/09/23 06:15:08;;;;;;;2.83;0.95;;;8.50;99.90;;;;;;5130159;28;20106;-48
2023/09/23 06:17:35;;;;;;;5.78;1.30;;;8.60;99.90;;;;;;5130720;27;20035;-48
2023/09/23 06:20:01;;;;;;;3.67;1.20;;;8.60;99.90;;;;;;5130206;27;20035;-47
2023/09/23 06:22:27;;;;;;;1.25;0.90;;;8.50;99.90;;;;;;5126300;27;20020;-46
2023/09/23 06:24:54;;;;;;;2.20;1.17;;;8.60;99.90;;;;;;5115327;27;20098;-48
2023/09/23 06:27:20;;;;;;;1.33;0.65;;;8.60;99.90;;;;;;5116157;27;20034;-47
2023/09/23 06:29:46;;;;;;;6.65;1.65;;;8.60;99.90;;;;;;5121595;27;20020;-47
2023/09/23 06:32:12;;;;;;;4.38;1.40;;;8.70;99.90;;;;;;5116134;27;20024;-48
2023/09/23 06:34:38;;;;;;;4.32;1.10;;;8.70;99.90;;;;;;5115027;27;20068;-47
2023/09/23 06:37:04;;;;;;;3.70;1.42;;;8.80;99.90;;;;;;5125297;27;20070;-47
2023/09/23 06:39:30;;;;;;;1.77;1.13;;;8.80;99.90;;;;;;5124239;27;20065;-47
2023/09/23 06:41:56;;;;;;;3.28;1.25;;;8.80;99.90;;;;;;5129866;27;20030;-49
2023/09/23 06:44:21;;;;;;;4.57;1.35;;;8.80;99.90;;;;;;5115548;27;20376;-50
2023/09/23 06:46:49;;;;;;;3.38;1.02;;;8.90;99.90;;;;;;5124190;27;20080;-58
2023/09/23 06:49:15;;;;;;;3.28;1.20;;;9.00;99.90;;;;;;5132492;27;20031;-53
2023/09/23 06:51:41;;;;;;;2.92;1.17;;;9.00;99.90;;;;;;5122852;27;20064;-54
2023/09/23 06:54:07;;;;;;;2.42;0.98;;;9.00;99.90;;;;;;5113426;28;20034;-55
2023/09/23 06:56:34;;;;;;;6.03;1.13;;;9.00;99.90;;;;;;5115434;27;20016;-50
2023/09/23 06:59:00;;;;;;;3.33;1.30;;;9.10;99.90;;;;;;5113207;28;20039;-48
2023/09/23 07:01:26;;;;;;;7.13;1.20;;;9.20;99.90;;;;;;5120645;27;20084;-57
2023/09/23 07:03:52;;;;;;;4.10;0.88;;;9.20;99.90;;;;;;5130910;27;20023;-49
2023/09/23 07:06:17;;;;;;;2.42;1.27;;;9.30;99.90;;;;;;5119849;27;20464;-49
2023/09/23 07:08:43;;;;;;;6.97;1.20;;;9.30;99.90;;;;;;5118173;27;20027;-51
2023/09/23 07:11:13;;;;;;;1.67;1.00;;;9.40;99.90;;;;;;5103312;28;20026;-56
2023/09/23 07:13:39;;;;;;;;;;;9.40;99.90;;;;;;5121707;27;20032;-55
2023/09/23 07:16:05;;;;;;;2.85;1.30;;;9.50;99.90;;;;;;5124380;27;20387;-52
2023/09/23 07:18:31;;;;;;;2.95;1.15;;;9.60;99.90;;;;;;5130800;27;20039;-51
2023/09/23 07:20:57;;;;;;;2.92;1.05;;;9.70;99.90;;;;;;5125848;27;20028;-50
2023/09/23 07:23:23;;;;;;;3.65;0.93;;;9.70;99.90;;;;;;5123712;27;20023;-52
2023/09/23 07:25:49;;;;;;;3.72;1.27;;;9.80;99.90;;;;;;5125594;27;20034;-55
2023/09/23 07:28:14;;;;;;;2.20;1.30;;;10.00;99.90;;;;;;5114305;27;20031;-55
2023/09/23 07:30:40;;;;;;;1.33;0.75;;;10.10;99.90;;;;;;5123810;27;20015;-50
2023/09/23 07:33:05;;;;;;;5.90;1.17;;;10.10;99.90;;;;;;5131037;27;20084;-54
2023/09/23 07:35:32;;;;;;;4.30;1.15;;;10.20;99.90;;;;;;5113641;27;20467;-54
2023/09/23 07:38:01;;;;;;;2.28;0.90;;;10.40;99.90;;;;;;5132280;27;20447;-54
2023/09/23 07:40:28;;;;;;;6.10;1.40;;;10.60;99.90;;;;;;5132325;27;20645;-54
2023/09/23 07:42:54;;;;;;;3.63;1.10;;;10.90;99.90;;;;;;5130005;27;20475;-57
2023/09/23 07:45:20;;;;;;;1.90;0.93;;;11.30;99.90;;;;;;5132364;27;20080;-51
2023/09/23 07:47:46;;;;;;;5.90;1.20;;;11.90;99.90;;;;;;5132966;27;20035;-54
2023/09/23 07:50:11;;;;;;;2.88;0.90;;;12.60;99.90;;;;;;5131666;27;20031;-53
2023/09/23 07:52:38;;;;;;;2.30;1.10;;;13.20;99.90;;;;;;5121916;27;20102;-53
2023/09/23 07:55:04;;;;;;;1.48;0.90;;;13.80;99.90;;;;;;5121856;27;20123;-54
2023/09/23 07:57:32;;;;;;;7.10;1.15;;;14.40;99.90;;;;;;5120820;27;20043;-52
2023/09/23 07:59:58;;;;;;;3.20;0.85;;;15.00;99.90;;;;;;5121212;27;20512;-51
2023/09/23 08:02:23;;;;;;;6.63;1.23;;;15.50;99.90;;;;;;5131539;27;20038;-54
2023/09/23 08:04:49;;;;;;;4.28;1.10;;;15.70;99.90;;;;;;5130911;27;20433;-50
2023/09/23 08:07:14;;;;;;;3.55;0.70;;;16.30;99.90;;;;;;5131395;27;20027;-48
2023/09/23 08:09:40;;;;;;;3.17;0.90;;;16.70;99.90;;;;;;5131510;27;20031;-51
2023/09/23 08:12:06;;;;;;;4.00;0.90;;;16.60;99.90;;;;;;5126265;27;20023;-56
2023/09/23 08:14:31;;;;;;;5.40;0.77;;;17.10;99.90;;;;;;5120051;27;20072;-54
2023/09/23 08:16:57;;;;;;;2.92;1.00;;;17.50;99.90;;;;;;5132004;27;20385;-52
2023/09/23 08:19:23;;;;;;;2.78;0.80;;;17.90;99.90;;;;;;5131933;27;20373;-49
2023/09/23 08:21:49;;;;;;;4.25;1.05;;;18.00;99.90;;;;;;5131078;27;20088;-50
2023/09/23 08:24:15;;;;;;;3.10;0.75;;;17.90;99.90;;;;;;5131793;27;20051;-53
2023/09/23 08:26:40;;;;;;;2.30;0.77;;;17.80;99.90;;;;;;5130854;27;20568;-49
2023/09/23 08:29:06;;;;;;;1.48;0.63;;;18.20;99.90;;;;;;5131228;27;20027;-49
2023/09/23 08:31:32;;;;;;;2.85;0.65;;;18.70;99.90;;;;;;5132076;27;20118;-52
2023/09/23 08:33:58;;;;;;;4.15;1.05;;;19.00;99.90;;;;;;5131833;27;20099;-49
2023/09/23 08:36:24;;;;;;;2.38;0.75;;;19.20;99.90;;;;;;5124247;27;20026;-48
2023/09/23 08:38:50;;;;;;;2.38;0.70;;;19.30;99.90;;;;;;5123523;27;20735;-51
2023/09/23 08:41:21;;;;;;;1.58;0.70;;;19.50;99.90;;;;;;5111285;28;20552;-44
2023/09/23 08:43:50;;;;;;;3.25;0.75;;;19.70;99.90;;;;;;5112589;27;20487;-50
2023/09/23 08:46:18;;;;;;;3.13;0.85;;;19.90;99.90;;;;;;5111192;28;20018;-50
2023/09/23 08:48:44;;;;;;;0.93;0.50;;;19.80;99.90;;;;;;5111273;28;20111;-54
2023/09/23 08:51:12;;;;;;;3.58;0.88;;;19.90;99.90;;;;;;5111547;28;20057;-50
2023/09/23 08:53:39;;;;;;;4.47;1.27;;;20.30;99.90;;;;;;5121847;27;20027;-51
2023/09/23 08:56:06;;;;;;;2.90;0.73;;;20.90;99.90;;;;;;5124284;27;20105;-54
2023/09/23 08:58:32;;;;;;;1.30;0.60;;;21.30;99.90;;;;;;5115999;27;20555;-51
2023/09/23 09:00:58;;;;;;;1.77;0.52;;;21.40;99.90;;;;;;5110157;27;20121;-50
2023/09/23 09:03:24;;;;;;;1.98;0.68;;;21.50;99.90;;;;;;5118698;27;20028;-51
2023/09/23 09:05:50;;;;;;;4.88;0.82;;;21.40;99.90;;;;;;5120103;27;20046;-50
2023/09/23 09:08:18;;;;;;;4.35;0.80;;;21.60;99.90;;;;;;5109968;28;20027;-49
2023/09/23 09:10:44;;;;;;;3.47;1.10;;;21.70;99.90;;;;;;5113390;27;20019;-52
2023/09/23 09:13:09;;;;;;;1.67;0.70;;;22.10;99.90;;;;;;5112413;28;20501;-50
2023/09/23 09:15:36;;;;;;;2.17;0.65;;;22.20;99.90;;;;;;5115822;27;20157;-52
2023/09/23 09:18:02;;;;;;;2.80;0.70;;;22.00;99.90;;;;;;5113084;28;20062;-53
2023/09/23 09:20:32;;;;;;;3.00;0.73;;;22.10;99.90;;;;;;5119968;27;20102;-52
2023/09/23 09:22:58;;;;;;;5.32;1.00;;;22.20;99.90;;;;;;5115530;28;20038;-52
2023/09/23 09:25:24;;;;;;;3.53;1.23;;;22.30;99.90;;;;;;5121226;28;20073;-53
2023/09/23 09:27:51;;;;;;;1.52;0.60;;;22.40;99.90;;;;;;5121553;28;20106;-52
2023/09/23 09:30:19;;;;;;;1.92;0.80;;;22.40;99.90;;;;;;5118782;28;20111;-51
2023/09/23 09:32:46;;;;;;;3.08;0.50;;;22.50;99.90;;;;;;5114847;28;20077;-53
2023/09/23 09:35:14;;;;;;;2.28;0.85;;;22.90;99.90;;;;;;5110185;28;20026;-51
2023/09/23 09:37:44;;;;;;;0.98;0.50;;;23.00;99.90;;;;;;5125919;27;20037;-56
2023/09/23 09:40:14;;;;;;;3.00;0.65;;;23.10;99.90;;;;;;5117206;27;20044;-50
2023/09/23 09:42:46;;;;;;;3.58;0.75;;;23.50;99.90;;;;;;5112798;27;20036;-53
2023/09/23 09:45:14;;;;;;;1.52;0.60;;;23.60;99.90;;;;;;5117560;28;20023;-54
2023/09/23 09:47:44;;;;;;;0.85;0.43;;;23.60;99.90;;;;;;5123378;28;20072;-51
2023/09/23 09:50:14;;;;;;;4.20;0.60;;;23.70;99.90;;;;;;5096485;28;20047;-57
2023/09/23 09:52:46;;;;;;;5.00;0.82;;;23.80;99.90;;;;;;5113974;27;20024;-52
2023/09/23 09:55:17;;;;;;;2.20;0.60;;;23.80;99.90;;;;;;5120183;27;20110;-56
2023/09/23 09:57:43;;;;;;;2.05;0.63;;;23.50;99.90;;;;;;5129656;27;20134;-48
2023/09/23 10:00:21;;;;;;;3.05;0.73;;;23.50;99.90;;;;;;5125870;27;20027;-55
2023/09/23 10:02:50;;;;;;;2.05;0.50;;;23.90;99.90;;;;;;5120570;27;20035;-48
2023/09/23 10:05:17;;;;;;;1.65;0.60;;;24.30;99.90;;;;;;5124900;27;20051;-51
2023/09/23 10:07:56;;;;;;;1.00;0.50;;;24.90;98.50;;;;;;5119129;27;20024;-53
2023/09/23 10:10:38;;;;;;;2.15;0.73;;;25.10;97.80;;;;;;5127509;27;20040;-55
2023/09/23 10:13:23;;;;;;;5.45;0.85;;;25.30;99.50;;;;;;5122721;27;20031;-52
2023/09/23 10:16:02;;;;;;;2.22;0.68;;;25.50;98.00;;;;;;5124830;27;20027;-49
2023/09/23 10:18:40;;;;;;;1.98;0.38;;;25.40;97.30;;;;;;5130690;27;20601;-51
2023/09/23 10:21:07;;;;;;;1.95;0.40;;;24.80;96.90;;;;;;5118058;27;20020;-53
2023/09/23 10:23:35;;;;;;;1.63;0.70;;;24.60;97.50;;;;;;5130709;27;20098;-52
2023/09/23 10:26:15;;;;;;;2.17;0.70;;;24.30;97.40;;;;;;5130335;27;20084;-55
2023/09/23 10:28:41;;;;;;;3.22;0.88;;;24.20;98.20;;;;;;5121659;27;20487;-50
2023/09/23 10:31:07;;;;;;;2.85;0.60;;;24.50;97.50;;;;;;5116823;27;20038;-51
2023/09/23 10:33:34;;;;;;;2.90;0.70;;;24.20;97.90;;;;;;5130197;27;20027;-52
2023/09/23 10:36:03;;;;;;;2.03;0.60;;;24.00;96.80;;;;;;5128991;27;20031;-50
2023/09/23 10:38:31;;;;;;;4.05;1.08;;;24.20;98.40;;;;;;5106485;27;20031;-55
2023/09/23 10:40:57;;;;;;;0.73;0.28;;;24.50;97.40;;;;;;5127687;27;20069;-52
2023/09/23 10:43:23;;;;;;;0.77;0.40;;;24.90;97.50;;;;;;5117877;27;20024;-50
2023/09/23 10:45:53;;;;;;;2.92;0.90;;;25.10;96.70;;;;;;5131231;27;20069;-53
2023/09/23 10:48:19;;;;;;;1.13;0.60;;;25.40;96.20;;;;;;5126839;27;20522;-51
2023/09/23 10:50:45;;;;;;;3.22;0.73;;;25.10;96.30;;;;;;5133958;27;20469;-55
2023/09/23 10:53:12;;;;;;;2.38;0.40;;;24.70;96.70;;;;;;5128926;27;20031;-56
2023/09/23 10:55:41;;;;;;;4.70;0.60;;;24.60;97.30;;;;;;5129994;27;20030;-48
2023/09/23 10:58:08;;;;;;;3.53;0.77;;;23.90;95.00;;;;;;5115330;27;20445;-50
2023/09/23 11:00:37;;;;;;;1.48;0.43;;;23.50;95.90;;;;;;5124694;27;20028;-49
2023/09/23 11:03:07;;;;;;;1.98;0.47;;;23.10;97.30;;;;;;5134314;27;20023;-51
2023/09/23 11:05:37;;;;;;;2.03;0.50;;;23.00;97.00;;;;;;5103179;27;20020;-49
2023/09/23 11:08:07;;;;;;;2.85;0.90;;;23.30;97.90;;;;;;5115637;27;20131;-47
2023/09/23 11:10:34;;;;;;;1.95;0.60;;;23.90;96.50;;;;;;5116937;27;20012;-53
2023/09/23 11:13:00;;;;;;;1.27;0.60;;;23.80;96.20;;;;;;5114346;27;20480;-52
2023/09/23 11:15:26;;;;;;;1.23;0.50;;;23.70;96.30;;;;;;5113026;28;20027;-51
2023/09/23 11:17:55;;;;;;;2.53;0.82;;;23.30;95.10;;;;;;5127502;27;20783;-58
2023/09/23 11:20:32;;;;;;;3.20;0.80;;;23.20;96.90;;;;;;5113008;28;20399;-53
2023/09/23 11:23:05;;;;;;;2.47;0.47;;;23.10;96.80;;;;;;5112945;28;20024;-52
2023/09/23 11:25:34;;;;;;;0.93;0.43;;;23.40;95.60;;;;;;5112940;28;20019;-50
2023/09/23 11:28:00;;;;;;;3.53;0.50;;;23.20;95.90;;;;;;5112944;28;20024;-52
2023/09/23 11:30:26;;;;;;;1.27;0.70;;;23.50;95.10;;;;;;5112814;28;20105;-57
2023/09/23 11:32:53;;;;;;;1.35;0.68;;;23.50;95.40;;;;;;5112796;28;20561;-50
2023/09/23 11:35:20;;;;;;;2.08;0.60;;;23.30;95.50;;;;;;5112845;28;20030;-48
2023/09/23 11:37:47;;;;;;;2.28;0.77;;;23.00;95.50;;;;;;5112689;28;20032;-54
2023/09/23 11:40:14;;;;;;;1.23;0.50;;;23.30;95.60;;;;;;5112221;28;20047;-50
2023/09/23 11:42:41;;;;;;;2.40;0.50;;;23.30;97.50;;;;;;5112594;28;20019;-53
2023/09/23 11:45:10;;;;;;;2.25;0.52;;;23.00;94.20;;;;;;5117365;27;20106;-48
2023/09/23 11:47:36;;;;;;;;;;;22.50;94.30;;;;;;5133638;27;20487;-53
2023/09/23 11:50:03;;;;;;;1.58;0.50;;;22.10;95.80;;;;;;5132890;27;19928;-51
2023/09/23 11:52:30;;;;;;;1.38;0.40;;;22.10;97.30;;;;;;5133027;27;20522;-47
2023/09/23 11:54:56;;;;;;;1.55;0.57;;;22.40;95.90;;;;;;5132334;27;20520;-46
2023/09/23 11:57:22;;;;;;;1.85;0.60;;;22.50;95.00;;;;;;5118571;27;20032;-47
2023/09/23 11:59:47;;;;;;;2.40;0.70;;;22.00;95.30;;;;;;5130341;27;20578;-51
2023/09/23 12:02:13;;;;;;;1.83;0.50;;;21.90;97.00;;;;;;5126757;27;20019;-54
2023/09/23 12:04:39;;;;;;;9.70;1.10;;;22.40;97.90;;;;;;5120580;27;20031;-50
2023/09/23 12:07:06;;;;;;;2.20;0.40;;;22.40;95.50;;;;;;5127051;27;20243;-47
2023/09/23 12:09:35;;;;;;;2.47;0.50;;;22.30;94.60;;;;;;5119204;27;20385;-51
2023/09/23 12:12:01;;;;;;;0.88;0.32;;;21.80;94.00;;;;;;5111975;28;20050;-55
2023/09/23 12:14:27;;;;;;;1.35;0.40;;;21.50;95.50;;;;;;5119469;27;20034;-51
2023/09/23 12:16:52;;;;;;;0.82;0.55;;;21.60;95.90;;;;;;5132170;27;20019;-55
2023/09/23 12:19:18;;;;;;;9.35;2.00;;;21.60;94.80;;;;;;5114061;27;20364;-52
2023/09/23 12:21:44;;;;;;;7.45;1.90;;;21.40;95.20;;;;;;5115711;27;20064;-51
2023/09/23 12:24:09;;;;;;;1.45;0.50;;;21.30;96.90;;;;;;5118832;27;20395;-49
2023/09/23 12:26:35;;;;;;;1.77;0.47;;;21.60;97.70;;;;;;5127555;27;20031;-48
2023/09/23 12:29:02;;;;;;;1.98;0.57;;;21.80;96.10;;;;;;5131372;27;20159;-48
2023/09/23 12:31:28;;;;;;;1.75;0.55;;;21.90;94.70;;;;;;5127608;27;20079;-56
2023/09/23 12:33:53;;;;;;;1.42;0.50;;;22.10;95.80;;;;;;5131954;27;20100;-49
2023/09/23 12:36:19;;;;;;;1.35;0.63;;;21.80;95.30;;;;;;5132002;27;20074;-49
2023/09/23 12:38:47;;;;;;;2.20;0.73;;;21.40;95.80;;;;;;5120008;27;20491;-59
2023/09/23 12:41:14;;;;;;;1.15;0.50;;;20.80;95.30;;;;;;5119635;27;20051;-50
2023/09/23 12:43:40;;;;;;;1.35;0.57;;;20.30;96.20;;;;;;5112563;27;20028;-52
2023/09/23 12:46:06;;;;;;;0.63;0.40;;;19.70;95.40;;;;;;5111445;28;20118;-56
2023/09/23 12:48:31;;;;;;;1.25;0.60;;;19.30;97.10;;;;;;5111264;28;20035;-56
2023/09/23 12:50:57;;;;;;;1.13;0.52;;;18.90;97.30;;;;;;5111251;28;20020;-56
2023/09/23 12:53:23;;;;;;;1.83;0.77;;;18.60;98.00;;;;;;5111120;28;20426;-61